Dchai 265 — 9VDB4 — position and weather

sailwx.info

Track history (hours):
 
Tides and Currents Weather Stations Pressure Air Temp Water Temp Dewpoint Dewpoint Depression Visibility Wind Speed Wind Dir Waves Ship Positions

Dchai 265

Last reported at 2018-Jun-16 10:01 UTC. Time now 2018-Jun-18 07:30 UTC.
Position N 31°05' E 122°38'.

Length 198 m; draft 7 m.

Type: Cargo ship. MMSI: 564330498.

Date/timePositionNaut miles runAvg speedWind from/ knotsBaromVisibWave heightAir tempDewpointWater temp
2018-Jun-16 10:01N 31°05' E 122°38'016.8
2018-Jun-16 10:00N 31°05' E 122°38'1014.5
2018-Jun-16 09:19N 31°06' E 122°26'413.2
2018-Jun-16 09:00N 31°06' E 122°21'713.5
2018-Jun-16 08:28N 31°09' E 122°13'814.8
2018-Jun-16 07:55N 31°14' E 122°06'614.6
2018-Jun-16 07:30N 31°15' E 121°59'713.4
2018-Jun-16 07:00N 31°16' E 121°51'27 1.5
2018-Jun-15 13:09N 31°06' E 122°20'312.6
2018-Jun-15 12:57N 31°06' E 122°23'21 2.2
2018-Jun-15 03:22N 31°03' E 122°47'0 0.0
2018-Jun-15 02:58N 31°03' E 122°47'0 0.0
2018-Jun-15 02:25N 31°03' E 122°47'0 0.0
2018-Jun-15 01:52N 31°03' E 122°47'0 0.0
2018-Jun-15 01:25N 31°03' E 122°47'0 0.1
2018-Jun-15 00:58N 31°03' E 122°47'0 0.1
2018-Jun-15 00:25N 31°03' E 122°47'0 0.1
2018-Jun-14 21:52N 31°03' E 122°48'0 0.1
2018-Jun-14 21:19N 31°03' E 122°48'0 0.0
2018-Jun-14 20:49N 31°03' E 122°48'0 0.0
2018-Jun-14 20:19N 31°03' E 122°48'0 0.0
2018-Jun-14 19:55N 31°03' E 122°48'0 0.0
2018-Jun-14 18:37N 31°03' E 122°48'0 0.1
2018-Jun-14 18:28N 31°03' E 122°48'0 0.0
2018-Jun-14 17:52N 31°03' E 122°48'0 0.1
2018-Jun-14 17:19N 31°03' E 122°48'0 0.1
2018-Jun-14 16:58N 31°03' E 122°48'0 0.1
2018-Jun-14 16:25N 31°03' E 122°47'0 0.1
2018-Jun-14 15:55N 31°03' E 122°47'0 0.0
2018-Jun-14 15:22N 31°03' E 122°47'0 0.1
2018-Jun-14 14:40N 31°03' E 122°47'0 0.0
2018-Jun-14 14:13N 31°03' E 122°47'0 0.0
2018-Jun-14 13:58N 31°03' E 122°47'0 0.3
2018-Jun-14 13:25N 31°03' E 122°48'1 1.6
2018-Jun-14 12:56N 31°03' E 122°48'  
2018-Jun-12 02:09N 34°58' E 139°40'416.5
2018-Jun-12 01:55N 35°02' E 139°42'716.8
2018-Jun-12 01:30N 35°08' E 139°45'612.6
2018-Jun-12 01:00N 35°14' E 139°46'713.3
2018-Jun-12 00:30N 35°20' E 139°42'612.7
2018-Jun-12 00:00N 35°27' E 139°42'1 1.5
2018-Jun-11 23:30N 35°26' E 139°41'0 0.0
2018-Jun-11 22:57N 35°26' E 139°41'0 0.0
2018-Jun-11 22:21N 35°26' E 139°41'0 0.0
2018-Jun-11 21:57N 35°26' E 139°41'0 0.0
2018-Jun-11 21:27N 35°26' E 139°41'0 0.0
2018-Jun-11 20:57N 35°26' E 139°41'0 0.0
2018-Jun-11 20:27N 35°26' E 139°41'0 0.0
2018-Jun-11 19:57N 35°26' E 139°41'0 0.0
2018-Jun-11 19:27N 35°26' E 139°41'0 0.0
2018-Jun-11 18:57N 35°26' E 139°41'0 0.0
2018-Jun-11 18:27N 35°26' E 139°41'0 0.0
2018-Jun-11 17:57N 35°26' E 139°41'0 0.0
2018-Jun-11 17:30N 35°26' E 139°41'0 0.0
2018-Jun-11 16:57N 35°26' E 139°41'0 0.0
2018-Jun-11 16:30N 35°26' E 139°41'0 0.0
2018-Jun-11 15:57N 35°26' E 139°41'0 0.0
2018-Jun-11 15:30N 35°26' E 139°41'0 0.1
2018-Jun-11 14:58N 35°26' E 139°41'2 3.3
2018-Jun-11 14:30N 35°26' E 139°43'5 9.4
2018-Jun-11 14:00N 35°28' E 139°48'610.8
2018-Jun-11 13:30N 35°33' E 139°51'5 9.8
2018-Jun-11 13:00N 35°36' E 139°46'0 0.0
2018-Jun-11 08:58N 35°36' E 139°46'0 0.0
2018-Jun-11 08:19N 35°36' E 139°46'0 0.0
2018-Jun-11 02:37N 35°36' E 139°46'0 0.0
2018-Jun-11 02:28N 35°36' E 139°46'0 0.0
2018-Jun-11 01:31N 35°36' E 139°46'0 0.0
2018-Jun-11 01:25N 35°36' E 139°46'0 0.0
2018-Jun-11 00:22N 35°36' E 139°46'0 0.0
2018-Jun-10 23:58N 35°36' E 139°46'0 0.0
2018-Jun-10 22:23N 35°36' E 139°46'1 3.2
2018-Jun-10 22:00N 35°35' E 139°47'510.3
2018-Jun-10 21:28N 35°31' E 139°52'511.2
2018-Jun-10 21:00N 35°27' E 139°49'613.1
2018-Jun-10 20:30N 35°21' E 139°45'611.8
2018-Jun-10 20:00N 35°15' E 139°47'611.4
2018-Jun-10 19:30N 35°10' E 139°47'4 8.5
2018-Jun-10 19:00N 35°06' E 139°44'5 9.5
2018-Jun-10 18:29N 35°01' E 139°42'  
Track history (hours):
 
Tides and Currents Weather Stations Pressure Air Temp Water Temp Dewpoint Dewpoint Depression Visibility Wind Speed Wind Dir Waves Ship Positions

Dchai 265

Last reported at 2018-Jun-16 10:01 UTC. Time now 2018-Jun-18 07:30 UTC.
Position N 31°05' E 122°38'.

Length 198 m; draft 7 m.

Type: Cargo ship. MMSI: 564330498.

Date/timePositionNaut miles runAvg speedWind from/ knotsBaromVisibWave heightAir tempDewpointWater temp
2018-Jun-16 10:01N 31°05' E 122°38'016.8
2018-Jun-16 10:00N 31°05' E 122°38'1014.5
2018-Jun-16 09:19N 31°06' E 122°26'413.2
2018-Jun-16 09:00N 31°06' E 122°21'713.5
2018-Jun-16 08:28N 31°09' E 122°13'814.8
2018-Jun-16 07:55N 31°14' E 122°06'614.6
2018-Jun-16 07:30N 31°15' E 121°59'713.4
2018-Jun-16 07:00N 31°16' E 121°51'27 1.5
2018-Jun-15 13:09N 31°06' E 122°20'312.6
2018-Jun-15 12:57N 31°06' E 122°23'21 2.2
2018-Jun-15 03:22N 31°03' E 122°47'0 0.0
2018-Jun-15 02:58N 31°03' E 122°47'0 0.0
2018-Jun-15 02:25N 31°03' E 122°47'0 0.0
2018-Jun-15 01:52N 31°03' E 122°47'0 0.0
2018-Jun-15 01:25N 31°03' E 122°47'0 0.1
2018-Jun-15 00:58N 31°03' E 122°47'0 0.1
2018-Jun-15 00:25N 31°03' E 122°47'0 0.1
2018-Jun-14 21:52N 31°03' E 122°48'0 0.1
2018-Jun-14 21:19N 31°03' E 122°48'0 0.0
2018-Jun-14 20:49N 31°03' E 122°48'0 0.0
2018-Jun-14 20:19N 31°03' E 122°48'0 0.0
2018-Jun-14 19:55N 31°03' E 122°48'0 0.0
2018-Jun-14 18:37N 31°03' E 122°48'0 0.1
2018-Jun-14 18:28N 31°03' E 122°48'0 0.0
2018-Jun-14 17:52N 31°03' E 122°48'0 0.1
2018-Jun-14 17:19N 31°03' E 122°48'0 0.1
2018-Jun-14 16:58N 31°03' E 122°48'0 0.1
2018-Jun-14 16:25N 31°03' E 122°47'0 0.1
2018-Jun-14 15:55N 31°03' E 122°47'0 0.0
2018-Jun-14 15:22N 31°03' E 122°47'0 0.1
2018-Jun-14 14:40N 31°03' E 122°47'0 0.0
2018-Jun-14 14:13N 31°03' E 122°47'0 0.0
2018-Jun-14 13:58N 31°03' E 122°47'0 0.3
2018-Jun-14 13:25N 31°03' E 122°48'1 1.6
2018-Jun-14 12:56N 31°03' E 122°48'  
2018-Jun-12 02:09N 34°58' E 139°40'416.5
2018-Jun-12 01:55N 35°02' E 139°42'716.8
2018-Jun-12 01:30N 35°08' E 139°45'612.6
2018-Jun-12 01:00N 35°14' E 139°46'713.3
2018-Jun-12 00:30N 35°20' E 139°42'612.7
2018-Jun-12 00:00N 35°27' E 139°42'1 1.5
2018-Jun-11 23:30N 35°26' E 139°41'0 0.0
2018-Jun-11 22:57N 35°26' E 139°41'0 0.0
2018-Jun-11 22:21N 35°26' E 139°41'0 0.0
2018-Jun-11 21:57N 35°26' E 139°41'0 0.0
2018-Jun-11 21:27N 35°26' E 139°41'0 0.0
2018-Jun-11 20:57N 35°26' E 139°41'0 0.0
2018-Jun-11 20:27N 35°26' E 139°41'0 0.0
2018-Jun-11 19:57N 35°26' E 139°41'0 0.0
2018-Jun-11 19:27N 35°26' E 139°41'0 0.0
2018-Jun-11 18:57N 35°26' E 139°41'0 0.0
2018-Jun-11 18:27N 35°26' E 139°41'0 0.0
2018-Jun-11 17:57N 35°26' E 139°41'0 0.0
2018-Jun-11 17:30N 35°26' E 139°41'0 0.0
2018-Jun-11 16:57N 35°26' E 139°41'0 0.0
2018-Jun-11 16:30N 35°26' E 139°41'0 0.0
2018-Jun-11 15:57N 35°26' E 139°41'0 0.0
2018-Jun-11 15:30N 35°26' E 139°41'0 0.1
2018-Jun-11 14:58N 35°26' E 139°41'2 3.3
2018-Jun-11 14:30N 35°26' E 139°43'5 9.4
2018-Jun-11 14:00N 35°28' E 139°48'610.8
2018-Jun-11 13:30N 35°33' E 139°51'5 9.8
2018-Jun-11 13:00N 35°36' E 139°46'0 0.0
2018-Jun-11 08:58N 35°36' E 139°46'0 0.0
2018-Jun-11 08:19N 35°36' E 139°46'0 0.0
2018-Jun-11 02:37N 35°36' E 139°46'0 0.0
2018-Jun-11 02:28N 35°36' E 139°46'0 0.0
2018-Jun-11 01:31N 35°36' E 139°46'0 0.0
2018-Jun-11 01:25N 35°36' E 139°46'0 0.0
2018-Jun-11 00:22N 35°36' E 139°46'0 0.0
2018-Jun-10 23:58N 35°36' E 139°46'0 0.0
2018-Jun-10 22:23N 35°36' E 139°46'1 3.2
2018-Jun-10 22:00N 35°35' E 139°47'510.3
2018-Jun-10 21:28N 35°31' E 139°52'511.2
2018-Jun-10 21:00N 35°27' E 139°49'613.1
2018-Jun-10 20:30N 35°21' E 139°45'611.8
2018-Jun-10 20:00N 35°15' E 139°47'611.4
2018-Jun-10 19:30N 35°10' E 139°47'4 8.5
2018-Jun-10 19:00N 35°06' E 139°44'5 9.5
2018-Jun-10 18:29N 35°01' E 139°42'  

Dump ship's entire track history